Cabo San Lucas International Airport
MMSL : rendu visible

Aérodrome :











RETROUVEZ-NOUS SUR...

 
LOGIN :

S'inscrire | Disclaimer

   EN    FR    IT 

 









Légende :    VFR   VFR Marginal   IFR   IFR Intensif   IFR Très Intensif
Visi : 
Plafond : 
>= 8 km
>= 3000ft
5 à 8 km
1000 à 3000 ft
1500m à 5 km
500 à 1000 ft
800 à 1500m
200 à 500 ft
< 800m
< 200 ft
Symboles :   Orages  Brouillard  Fortes neiges  Fortes précipitations  Vent > 20 kt






- Altitude de l'aérodrome : 459 ft
- Code IATA : CSL


MMSL - Cabo San Lucas International

DERNIER METAR :
  • 141940Z 18003KT 10SM SKC 24/14 A2992

METARs EXPIRÉS :
  • 141840Z 15004KT 10SM SKC 24/15 A2995
  • 141740Z 17003KT 10SM SKC 24/15 A2996

TAF TAF MMSL
Valide du 14 à 18h jusqu'au 15 à 18h UTC


141602Z 1418/1518 30006KT P6SM SKC
BECMG 1420/1421 32012KT
FM150200 34005KT P6SM SKC
BECMG 1505/1506 00000KT
FM151600 30006KT P6SM SKC



MET'MAP, la Météo Aéronautique d'un coup d'oeil ! - Copyright ORBIFLY Décembre 2007 - Disclaimer

ORBIFLY MET'MAP TEAM :

Programmation & Développement : Alexandra Zaïnal
Sur une idée originale de : Baudouin d'Aumeries
Assistance à la programmation : Marc-Olivier Méhu
Soutien technique & logistique : Manuel Goepfert

Contact : metmap@orbifly.com




SOURCES & CREDITS :

   NOAA       Earth
Advisory